Time;durP1;ratioP1;P1;durP2;ratioP2;P2;SDS_P1;SDS_P2;PMS_P1;PMS_P2;Temp;Humidity;BMP_temperature;BMP_pressure;BME280_temperature;BME280_humidity;BME280_pressure;Samples;Min_cycle;Max_cycle;Signal;HPM_P1;HPM_P2
2023/12/24 00:00:38;;;;;;;20.33;5.75;;;11.70;99.90;;;11.93;99.56;100616.19;4934059;29;20059;-69
2023/12/24 00:03:08;;;;;;;23.45;6.55;;;11.70;99.90;;;11.91;99.70;100596.78;4903460;29;20518;-69
2023/12/24 00:05:36;;;;;;;21.37;5.40;;;11.70;99.90;;;11.88;99.64;100590.63;4903316;29;20127;-69
2023/12/24 00:08:05;;;;;;;19.67;5.38;;;11.70;99.90;;;11.90;99.62;100594.16;4903208;29;20037;-70
2023/12/24 00:10:36;;;;;;;23.48;5.53;;;11.60;99.90;;;11.90;99.58;100560.56;4903335;29;20059;-69
2023/12/24 00:13:05;;;;;;;26.38;6.50;;;11.70;99.90;;;11.14;99.49;100433.63;4903478;29;20414;-69
2023/12/24 00:15:33;;;;;;;21.42;5.85;;;11.60;99.90;;;11.90;99.56;100584.44;4903230;29;20080;-70
2023/12/24 00:18:01;;;;;;;28.73;6.68;;;11.70;99.90;;;11.90;99.14;100560.56;4903154;29;20057;-69
2023/12/24 00:20:31;;;;;;;21.80;7.05;;;11.70;99.90;;;11.88;99.25;100554.41;4903352;29;20059;-69
2023/12/24 00:23:08;;;;;;;18.88;5.68;;;11.70;99.90;;;11.93;99.33;100578.19;4917666;29;20040;-69
2023/12/24 00:25:37;;;;;;;18.83;5.38;;;11.70;99.90;;;11.93;98.92;100589.66;4903472;29;20473;-70
2023/12/24 00:28:06;;;;;;;23.73;6.10;;;11.70;99.90;;;11.85;99.35;100570.34;4903272;29;20127;-69
2023/12/24 00:30:36;;;;;;;18.00;5.50;;;11.60;99.90;;;11.93;99.52;100583.47;4903313;29;20059;-70
2023/12/24 00:33:05;;;;;;;21.55;6.10;;;11.60;99.90;;;12.04;99.04;100576.28;4902058;29;20055;-69
2023/12/24 00:35:35;;;;;;;22.85;6.55;;;11.80;99.90;;;11.94;99.26;100561.41;4917636;29;20052;-70
2023/12/24 00:38:04;;;;;;;20.08;5.47;;;11.70;99.90;;;11.96;99.53;100541.06;4903241;29;20056;-70
2023/12/24 00:40:34;;;;;;;20.92;5.57;;;11.70;99.90;;;11.98;99.49;100568.41;4902878;29;20076;-69
2023/12/24 00:43:03;;;;;;;22.83;5.97;;;11.80;99.90;;;11.92;99.87;100568.50;4913962;29;20059;-69
2023/12/24 00:45:31;;;;;;;23.40;6.65;;;11.70;99.90;;;11.94;100.00;100561.41;4930443;29;20063;-69
2023/12/24 00:48:00;;;;;;;32.47;6.78;;;11.70;99.90;;;12.06;100.00;100563.88;4900039;29;20057;-70
2023/12/24 00:50:28;;;;;;;25.45;7.20;;;11.80;99.90;;;12.04;100.00;100555.06;4900187;29;20131;-69
2023/12/24 00:52:58;;;;;;;22.05;6.28;;;11.80;99.90;;;11.99;100.00;100525.97;4900019;29;20060;-69
2023/12/24 00:55:27;;;;;;;31.47;6.63;;;11.80;99.90;;;11.19;100.00;100370.88;4899986;29;20748;-70
2023/12/24 00:57:55;;;;;;;28.55;7.03;;;11.70;99.90;;;11.92;100.00;100540.22;4899612;29;20048;-69
2023/12/24 01:00:23;;;;;;;21.55;5.97;;;11.70;99.90;;;11.93;100.00;100527.81;4899982;29;20427;-69
2023/12/24 01:02:52;;;;;;;27.55;6.10;;;11.70;99.90;;;11.94;100.00;100521.66;4899714;29;20048;-69
2023/12/24 01:05:21;;;;;;;31.13;7.25;;;11.70;99.90;;;11.88;100.00;100527.91;4929985;29;20057;-69
2023/12/24 01:07:50;;;;;;;26.52;7.30;;;11.70;99.90;;;11.89;100.00;100496.97;4899755;29;20127;-69
2023/12/24 01:10:19;;;;;;;22.58;7.07;;;11.70;99.90;;;11.92;100.00;100515.50;4899590;29;20511;-70
2023/12/24 01:12:48;;;;;;;25.83;7.10;;;11.60;99.90;;;11.89;100.00;100539.38;4899910;29;20052;-70
2023/12/24 01:15:17;;;;;;;29.73;7.20;;;11.60;99.90;;;11.83;100.00;100528.91;4899661;29;20056;-69
2023/12/24 01:17:45;;;;;;;27.23;6.72;;;11.60;99.90;;;11.85;100.00;100538.56;4913901;29;20063;-70
2023/12/24 01:20:15;;;;;;;34.25;7.90;;;11.60;99.90;;;11.73;100.00;100515.75;4899562;29;20056;-70
2023/12/24 01:22:44;;;;;;;38.33;7.93;;;11.60;99.90;;;11.78;100.00;100542.19;4899475;29;20426;-70
2023/12/24 01:25:12;;;;;;;30.83;7.22;;;11.50;99.90;;;11.81;100.00;100538.63;4899419;29;20506;-69
2023/12/24 01:27:42;;;;;;;28.02;7.07;;;11.50;99.90;;;11.79;100.00;100536.88;4898079;29;20044;-69
2023/12/24 01:30:12;;;;;;;40.00;8.07;;;11.50;99.90;;;11.76;100.00;100541.34;4899739;29;20044;-70
2023/12/24 01:32:40;;;;;;;32.42;7.50;;;11.50;99.90;;;11.77;100.00;100514.81;4897917;29;20128;-70
2023/12/24 01:35:08;;;;;;;39.72;7.80;;;11.50;99.90;;;11.84;100.00;100517.38;4913796;29;20056;-70
2023/12/24 01:37:37;;;;;;;45.58;8.55;;;11.60;99.90;;;11.81;100.00;100509.50;4898993;29;20049;-69
2023/12/24 01:40:06;;;;;;;40.00;8.52;;;11.60;99.90;;;11.73;100.00;100491.91;4913709;29;20075;-69
2023/12/24 01:42:35;;;;;;;39.78;8.73;;;11.50;99.90;;;11.79;100.00;100510.38;4913833;29;20071;-69
2023/12/24 01:45:06;;;;;;;40.85;8.13;;;11.50;99.90;;;11.53;100.00;100451.59;4899131;29;20085;-69
2023/12/24 01:47:34;;;;;;;37.25;8.70;;;11.50;99.90;;;11.66;100.00;100500.88;4913778;29;20113;-69
2023/12/24 01:50:05;;;;;;;35.75;8.10;;;11.40;99.90;;;11.74;100.00;100498.97;4929398;29;20502;-69
2023/12/24 01:52:33;;;;;;;41.60;8.80;;;11.50;99.90;;;11.67;100.00;100469.97;4898747;29;20055;-69
2023/12/24 01:55:02;;;;;;;38.35;8.35;;;11.50;99.90;;;11.73;100.00;100493.69;4898936;29;20049;-69
2023/12/24 01:57:32;;;;;;;33.65;8.35;;;11.50;99.90;;;11.73;100.00;100483.97;4898909;29;20041;-69
2023/12/24 02:00:01;;;;;;;35.30;8.35;;;11.50;99.90;;;11.72;100.00;100468.09;4897617;29;20099;-70
2023/12/24 02:02:34;;;;;;;27.75;7.55;;;11.50;99.90;;;11.64;100.00;100447.00;4898536;29;20053;-69
2023/12/24 02:05:02;;;;;;;;;;;11.40;99.90;;;11.59;100.00;100435.56;4897882;29;20410;-69
2023/12/24 02:07:34;;;;;;;28.58;7.53;;;11.40;99.90;;;11.51;100.00;100458.69;4897039;29;19927;-70
2023/12/24 02:10:03;;;;;;;33.90;7.22;;;11.30;99.90;;;11.65;100.00;100455.81;4898543;29;20049;-69
2023/12/24 02:12:33;;;;;;;25.60;6.77;;;11.40;99.90;;;11.65;100.00;100451.41;4898482;29;20055;-68
2023/12/24 02:15:01;;;;;;;26.80;6.32;;;11.40;99.90;;;11.54;100.00;100453.31;4928207;29;20052;-68
2023/12/24 02:17:31;;;;;;;29.85;6.88;;;11.30;99.90;;;11.59;100.00;100447.97;4898288;29;20075;-68
2023/12/24 02:20:01;;;;;;;20.63;5.80;;;11.30;99.90;;;11.54;100.00;100453.31;4928637;29;20112;-68
2023/12/24 02:22:31;;;;;;;15.43;5.60;;;11.30;99.90;;;11.61;100.00;100457.63;4898462;29;20474;-68
2023/12/24 02:25:00;;;;;;;19.58;6.25;;;11.30;99.90;;;11.62;100.00;100459.38;4912624;29;20053;-68
2023/12/24 02:27:36;;;;;;;21.75;5.25;;;11.40;99.90;;;11.56;100.00;100437.41;4912568;29;20070;-70
2023/12/24 02:30:13;;;;;;;19.77;5.53;;;11.30;99.90;;;11.56;100.00;100434.75;4898624;29;20076;-68
2023/12/24 02:32:44;;;;;;;18.80;5.93;;;11.40;99.90;;;11.59;100.00;100448.81;4898206;29;20056;-68
2023/12/24 02:35:15;;;;;;;15.88;6.00;;;11.30;99.90;;;11.57;100.00;100434.75;4898215;29;20481;-69
2023/12/24 02:37:45;;;;;;;19.63;5.95;;;11.30;99.90;;;11.60;100.00;100441.75;4898087;29;20136;-68
2023/12/24 02:40:14;;;;;;;17.88;5.03;;;11.30;99.90;;;11.63;100.00;100431.97;4896719;29;20050;-69
2023/12/24 02:42:42;;;;;;;22.10;5.72;;;11.40;99.90;;;11.52;100.00;100423.34;4898278;29;20044;-68
2023/12/24 02:45:12;;;;;;;22.80;6.30;;;11.30;99.90;;;11.60;100.00;100420.56;4912695;29;20056;-68
2023/12/24 02:47:40;;;;;;;29.55;6.63;;;11.30;99.90;;;11.55;100.00;100406.53;4898243;29;20455;-68
2023/12/24 02:50:10;;;;;;;20.80;6.57;;;11.40;99.90;;;11.63;100.00;100407.28;4898095;29;20048;-69
2023/12/24 02:52:38;;;;;;;21.20;6.05;;;11.40;99.90;;;11.61;100.00;100412.59;4896517;29;20052;-68
2023/12/24 02:55:08;;;;;;;24.52;6.90;;;11.40;99.90;;;11.65;100.00;100394.91;4912461;29;20053;-68
2023/12/24 02:57:37;;;;;;;20.48;6.63;;;11.40;99.90;;;11.63;100.00;100396.69;4897898;29;20047;-68
2023/12/24 03:00:08;;;;;;;23.23;6.80;;;11.40;99.90;;;11.56;100.00;100387.97;4912257;29;20044;-67
2023/12/24 03:02:37;;;;;;;30.08;7.30;;;11.40;99.90;;;11.68;100.00;100392.22;4896528;29;20072;-68
2023/12/24 03:05:06;;;;;;;24.33;6.53;;;11.40;99.90;;;11.69;100.00;100386.88;4897223;29;20054;-68
2023/12/24 03:07:34;;;;;;;27.80;6.72;;;11.50;99.90;;;11.72;100.00;100396.56;4897842;29;20052;-67
2023/12/24 03:10:03;;;;;;;23.70;6.35;;;11.50;99.90;;;11.73;100.00;100393.00;4897909;29;20398;-68
2023/12/24 03:12:33;;;;;;;30.30;6.45;;;11.50;99.90;;;11.72;100.00;100384.19;4897616;29;20084;-68
2023/12/24 03:15:02;;;;;;;33.87;7.17;;;11.50;99.90;;;11.81;100.00;100387.59;4927427;29;20080;-68
2023/12/24 03:17:30;;;;;;;32.55;7.70;;;11.60;99.90;;;11.75;100.00;100381.50;4897472;29;20048;-68
2023/12/24 03:19:58;;;;;;;32.88;7.95;;;11.50;99.90;;;11.81;100.00;100372.56;4912121;29;20082;-68
2023/12/24 03:22:28;;;;;;;28.42;6.97;;;11.60;99.90;;;11.80;100.00;100381.41;4896492;29;20100;-68
2023/12/24 03:24:56;;;;;;;31.48;7.60;;;11.60;99.90;;;11.76;100.00;100377.94;4897446;29;20136;-68
2023/12/24 03:27:24;;;;;;;27.50;7.00;;;11.50;99.90;;;11.72;100.00;100370.97;4912128;29;20498;-68
2023/12/24 03:29:54;;;;;;;25.65;7.20;;;11.50;99.90;;;11.78;100.00;100362.03;4897403;29;20070;-68
2023/12/24 03:32:23;;;;;;;27.98;6.80;;;11.50;99.90;;;11.77;100.00;100374.38;4897341;29;20055;-68
2023/12/24 03:34:52;;;;;;;28.10;6.65;;;11.50;99.90;;;11.74;100.00;100371.81;4911813;29;20053;-69
2023/12/24 03:37:20;;;;;;;32.40;7.32;;;11.60;99.90;;;11.76;100.00;100388.56;4897388;29;20072;-67
2023/12/24 03:39:49;;;;;;;22.33;7.18;;;11.50;99.90;;;11.79;100.00;100377.88;4897349;29;20056;-68
2023/12/24 03:42:17;;;;;;;32.13;7.80;;;11.50;99.90;;;11.79;100.00;100364.63;4897290;29;20064;-67
2023/12/24 03:44:45;;;;;;;34.50;7.53;;;11.50;99.90;;;11.78;100.00;100354.97;4897547;29;20048;-67
2023/12/24 03:47:15;;;;;;;39.28;8.68;;;11.60;99.90;;;11.79;100.00;100367.28;4897220;29;20053;-68
2023/12/24 03:49:44;;;;;;;37.53;8.23;;;11.60;99.90;;;11.74;100.00;100353.25;4897405;29;20060;-68
2023/12/24 03:52:12;;;;;;;32.25;8.65;;;11.50;99.90;;;11.82;100.00;100370.78;4911701;29;20312;-68
2023/12/24 03:54:40;;;;;;;37.67;9.45;;;11.60;99.90;;;11.79;100.00;100363.75;4897170;29;20040;-68
2023/12/24 03:57:09;;;;;;;50.72;10.68;;;11.60;99.90;;;11.83;100.00;100354.00;4897173;29;20049;-68
2023/12/24 03:59:39;;;;;;;40.88;9.40;;;11.60;99.90;;;11.79;100.00;100361.09;4896985;29;20057;-68
2023/12/24 04:02:07;;;;;;;50.45;9.50;;;11.50;99.90;;;11.82;100.00;100362.84;4897175;29;20115;-68
2023/12/24 04:04:37;;;;;;;41.75;10.32;;;11.60;99.90;;;11.84;100.00;100366.34;4897081;29;20045;-68
2023/12/24 04:07:05;;;;;;;59.80;11.38;;;11.60;99.90;;;11.91;100.00;100379.44;4897306;29;20145;-68
2023/12/24 04:09:34;;;;;;;54.40;11.50;;;11.70;99.90;;;11.82;100.00;100352.25;4896721;29;20052;-68
2023/12/24 04:12:02;;;;;;;55.75;10.70;;;11.60;99.90;;;11.79;100.00;100347.84;4896720;29;20059;-67
2023/12/24 04:14:31;;;;;;;50.33;11.43;;;11.60;99.90;;;11.85;100.00;100363.66;4911553;29;20062;-68
2023/12/24 04:17:01;;;;;;;49.17;10.40;;;11.60;99.90;;;11.81;100.00;100356.66;4898084;29;20068;-68
2023/12/24 04:19:29;;;;;;;49.65;10.38;;;11.60;99.90;;;11.79;100.00;100342.56;4900512;29;20498;-68
2023/12/24 04:21:59;;;;;;;48.40;10.57;;;11.60;99.90;;;11.83;100.00;100360.16;4930433;29;20046;-68
2023/12/24 04:24:27;;;;;;;46.45;10.38;;;11.60;99.90;;;11.87;100.00;100359.19;4900395;29;20481;-68
2023/12/24 04:26:56;;;;;;;52.70;11.70;;;11.60;99.90;;;11.90;100.00;100361.81;4898864;29;20465;-68
2023/12/24 04:29:24;;;;;;;46.65;9.82;;;11.70;99.90;;;11.93;100.00;100360.84;4914646;29;20120;-68
2023/12/24 04:31:53;;;;;;;49.97;10.60;;;11.70;99.90;;;11.94;100.00;100359.97;4914715;29;20135;-67
2023/12/24 04:34:22;;;;;;;54.33;11.70;;;11.70;99.90;;;11.93;100.00;100358.22;4900047;29;20053;-68
2023/12/24 04:36:51;;;;;;;52.75;10.77;;;11.70;99.90;;;11.95;100.00;100346.69;4914899;29;20068;-68
2023/12/24 04:39:21;;;;;;;57.92;10.50;;;11.70;99.90;;;12.01;100.00;100358.94;4900015;29;20394;-67
2023/12/24 04:41:49;;;;;;;48.28;9.98;;;11.80;99.90;;;12.05;100.00;100358.00;4914733;29;20052;-68
2023/12/24 04:44:18;;;;;;;49.60;10.68;;;11.80;99.90;;;12.03;100.00;100352.72;4900016;29;20063;-68
2023/12/24 04:46:46;;;;;;;52.17;10.52;;;11.80;99.90;;;12.12;100.00;100352.53;4900046;29;20052;-67
2023/12/24 04:49:15;;;;;;;46.22;9.70;;;11.80;99.90;;;12.16;100.00;100346.28;4898740;29;20052;-68
2023/12/24 04:51:43;;;;;;;58.90;10.85;;;11.90;99.90;;;12.16;100.00;100345.41;4898650;29;20052;-68
2023/12/24 04:54:12;;;;;;;59.95;10.60;;;11.90;99.90;;;12.16;100.00;100342.75;4900287;29;20048;-67
2023/12/24 04:56:41;;;;;;;62.80;11.25;;;11.90;99.90;;;12.14;100.00;100341.91;4898712;29;20041;-68
2023/12/24 04:59:10;;;;;;;65.83;12.73;;;11.90;99.90;;;12.16;100.00;100343.63;4899979;29;20104;-68
2023/12/24 05:01:39;;;;;;;54.70;10.82;;;11.90;99.90;;;12.14;100.00;100334.84;4930257;29;20059;-68
2023/12/24 05:04:10;;;;;;;58.13;10.93;;;11.90;99.90;;;12.12;100.00;100336.63;4899849;29;20037;-69
2023/12/24 05:06:40;;;;;;;54.30;10.38;;;11.90;99.90;;;12.21;100.00;100333.84;4898805;29;20414;-68
2023/12/24 05:09:09;;;;;;;58.42;11.40;;;11.90;99.90;;;12.19;100.00;100343.59;4899772;29;20051;-68
2023/12/24 05:11:40;;;;;;;55.70;11.07;;;11.90;99.90;;;12.16;100.00;100334.78;4914519;29;20147;-68
2023/12/24 05:14:09;;;;;;;54.22;11.48;;;11.90;99.90;;;12.22;100.00;100327.59;4914293;29;20501;-68
2023/12/24 05:16:38;;;;;;;57.90;10.60;;;11.90;99.90;;;12.28;100.00;100324.84;4900032;29;20116;-68
2023/12/24 05:19:07;;;;;;;56.50;10.85;;;12.00;99.90;;;12.22;100.00;100316.13;4899460;29;20559;-67
2023/12/24 05:21:35;;;;;;;53.35;10.77;;;12.00;99.90;;;12.13;100.00;100317.19;4914332;29;20059;-66
2023/12/24 05:24:04;;;;;;;53.92;10.57;;;11.90;99.90;;;12.23;100.00;100334.66;4914209;29;20045;-66
2023/12/24 05:26:32;;;;;;;53.10;10.02;;;12.00;99.90;;;12.25;100.00;100314.28;4899532;29;20053;-66
2023/12/24 05:29:02;;;;;;;47.83;10.60;;;12.00;99.90;;;12.23;100.00;100324.03;4898865;29;20059;-67
2023/12/24 05:31:30;;;;;;;49.47;10.10;;;12.00;99.90;;;12.19;100.00;100314.44;4899434;29;20149;-68
2023/12/24 05:33:59;;;;;;;51.33;11.15;;;12.00;99.90;;;12.19;100.00;100326.81;4899220;29;20466;-66
2023/12/24 05:36:27;;;;;;;42.15;9.15;;;11.90;99.90;;;12.22;100.00;100316.13;4898984;29;20051;-67
2023/12/24 05:38:56;;;;;;;49.35;9.43;;;12.00;99.90;;;12.28;100.00;100311.59;4898839;29;20727;-67
2023/12/24 05:41:24;;;;;;;44.72;10.23;;;12.00;99.90;;;12.33;100.00;100316.81;4898925;29;20041;-69
2023/12/24 05:43:57;;;;;;;49.47;9.88;;;12.00;99.90;;;12.29;100.00;100315.13;4899188;29;20051;-68
2023/12/24 05:46:27;;;;;;;49.92;10.07;;;12.10;99.90;;;12.26;100.00;100307.19;4899221;29;20048;-67
2023/12/24 05:48:55;;;;;;;48.72;10.13;;;12.00;99.90;;;12.24;100.00;100325.81;4899054;29;20080;-67
2023/12/24 05:51:23;;;;;;;46.95;10.85;;;12.00;99.90;;;12.20;100.00;100304.66;4898925;29;20048;-68
2023/12/24 05:53:52;;;;;;;50.67;10.10;;;12.00;99.90;;;12.32;100.00;100304.44;4898887;29;20073;-68
2023/12/24 05:56:20;;;;;;;40.72;9.40;;;12.00;99.90;;;12.23;100.00;100297.53;4913251;29;20112;-68
2023/12/24 05:58:48;;;;;;;41.88;8.77;;;12.00;99.90;;;12.29;100.00;100296.56;4899025;29;20083;-68
2023/12/24 06:01:17;;;;;;;48.55;9.40;;;12.10;99.90;;;12.27;100.00;100291.25;4898397;29;20044;-68
2023/12/24 06:03:46;;;;;;;42.80;9.38;;;12.00;99.90;;;12.30;100.00;100298.28;4898577;29;20486;-69
2023/12/24 06:06:15;;;;;;;48.13;8.97;;;12.10;99.90;;;12.32;100.00;100288.53;4898532;29;20053;-69
2023/12/24 06:08:43;;;;;;;42.55;10.05;;;12.10;99.90;;;12.38;100.00;100297.22;4898498;29;20328;-69
2023/12/24 06:11:16;;;;;;;57.05;10.07;;;12.10;99.90;;;12.41;100.00;100304.22;4898525;29;20100;-68
2023/12/24 06:13:45;;;;;;;45.05;8.93;;;12.20;99.90;;;12.46;100.00;100281.16;4898434;29;20060;-69
2023/12/24 06:16:13;;;;;;;42.60;8.82;;;12.20;99.90;;;12.42;100.00;100283.00;4898264;29;20752;-68
2023/12/24 06:18:42;;;;;;;45.38;9.23;;;12.20;99.90;;;12.43;100.00;100281.19;4898207;29;20124;-68
2023/12/24 06:21:12;;;;;;;55.90;11.05;;;12.20;99.90;;;12.42;100.00;100293.63;4898252;29;20388;-68
2023/12/24 06:23:41;;;;;;;61.53;9.07;;;12.20;99.90;;;12.50;100.00;100304.06;4898089;29;20100;-69
2023/12/24 06:26:09;;;;;;;41.45;8.57;;;12.20;99.90;;;12.37;100.00;100283.97;4898235;29;20052;-68
2023/12/24 06:28:38;;;;;;;41.25;9.35;;;12.20;99.90;;;12.40;100.00;100305.16;4898065;29;20065;-69
2023/12/24 06:31:06;;;;;;;46.83;9.50;;;12.20;99.90;;;12.43;100.00;100278.53;4898172;29;20053;-69
2023/12/24 06:33:34;;;;;;;53.85;9.65;;;12.20;99.90;;;12.47;100.00;100299.69;4912426;29;20060;-68
2023/12/24 06:36:03;;;;;;;51.53;10.32;;;12.20;99.90;;;12.45;100.00;100309.44;4897737;29;20048;-68
2023/12/24 06:38:33;;;;;;;48.40;10.63;;;12.20;99.90;;;12.50;100.00;100301.41;4897695;29;20071;-68
2023/12/24 06:41:03;;;;;;;51.50;10.73;;;12.30;99.90;;;12.54;100.00;100311.91;4897042;29;20048;-68
2023/12/24 06:43:31;;;;;;;52.75;11.55;;;12.20;99.90;;;12.57;100.00;100305.66;4897599;29;20104;-68
2023/12/24 06:46:00;;;;;;;50.42;10.32;;;12.30;99.90;;;12.51;100.00;100308.44;4897831;29;20092;-68
2023/12/24 06:48:28;;;;;;;48.30;11.52;;;12.30;99.90;;;12.56;100.00;100296.81;4897540;29;20128;-68
2023/12/24 06:50:57;;;;;;;54.45;10.95;;;12.30;99.90;;;12.54;100.00;100297.78;4897640;29;20139;-69
2023/12/24 06:53:26;;;;;;;57.15;11.25;;;12.30;99.90;;;12.62;100.00;100291.38;4897825;29;20048;-68
2023/12/24 06:55:56;;;;;;;61.45;12.65;;;12.40;99.90;;;12.64;100.00;100307.25;4897844;29;20045;-68
2023/12/24 06:58:24;;;;;;;57.38;11.30;;;12.40;99.90;;;12.65;100.00;100301.06;4897458;29;20387;-68
2023/12/24 07:00:52;;;;;;;62.17;11.57;;;12.40;99.90;;;12.58;100.00;100297.66;4897392;29;20136;-68
2023/12/24 07:03:21;;;;;;;58.88;11.38;;;12.40;99.90;;;12.55;100.00;100294.22;4897415;29;20055;-68
2023/12/24 07:05:49;;;;;;;62.28;10.45;;;12.30;99.90;;;12.55;100.00;100278.28;4897441;29;20104;-68
2023/12/24 07:08:18;;;;;;;53.13;11.20;;;12.30;99.90;;;12.54;100.00;100292.47;4897391;29;20063;-69
2023/12/24 07:10:46;;;;;;;50.67;10.65;;;12.30;99.90;;;12.59;100.00;100302.06;4897265;29;20040;-69
2023/12/24 07:13:16;;;;;;;52.42;10.98;;;12.30;99.90;;;12.60;100.00;100302.97;4897373;29;20139;-70
2023/12/24 07:15:44;;;;;;;45.90;10.23;;;12.40;99.90;;;12.54;100.00;100284.53;4897051;29;20069;-68
2023/12/24 07:18:13;;;;;;;53.88;11.10;;;12.40;99.90;;;12.54;100.00;100284.53;4897648;29;20068;-69
2023/12/24 07:20:41;;;;;;;38.17;9.50;;;12.30;99.90;;;12.57;100.00;100293.28;4895984;29;20045;-71
2023/12/24 07:23:10;;;;;;;41.90;10.35;;;12.30;99.90;;;12.56;100.00;100286.22;4897359;29;20100;-68
2023/12/24 07:25:39;;;;;;;42.20;9.88;;;12.30;99.90;;;12.58;100.00;100280.91;4897240;29;20155;-67
2023/12/24 07:28:07;;;;;;;42.50;10.18;;;12.30;99.90;;;12.56;100.00;100288.84;4897132;29;20077;-68
2023/12/24 07:30:37;;;;;;;40.35;9.73;;;12.30;99.90;;;12.57;100.00;100281.78;4897676;29;20056;-68
2023/12/24 07:33:06;;;;;;;48.80;9.70;;;12.30;99.90;;;12.51;100.00;100282.78;4911858;29;20501;-68
2023/12/24 07:35:34;;;;;;;49.42;10.23;;;12.30;99.90;;;12.52;100.00;100279.22;4897071;29;20601;-67
2023/12/24 07:38:03;;;;;;;49.75;10.30;;;12.30;99.90;;;12.51;100.00;100290.75;4896960;29;20479;-67
2023/12/24 07:40:31;;;;;;;53.22;11.43;;;12.30;99.90;;;12.53;100.00;100280.09;4896991;29;20045;-68
2023/12/24 07:43:00;;;;;;;55.88;11.98;;;12.30;99.90;;;12.57;100.00;100280.00;4896235;29;20604;-74
2023/12/24 07:45:29;;;;;;;52.55;11.18;;;12.30;99.90;;;12.56;100.00;100278.25;4896494;29;20127;-67
2023/12/24 07:47:59;;;;;;;61.45;11.30;;;12.30;99.90;;;12.56;100.00;100288.84;4896090;29;20053;-67
2023/12/24 07:50:27;;;;;;;57.80;12.48;;;12.30;99.90;;;12.60;100.00;100289.69;4897535;29;20059;-67
2023/12/24 07:52:56;;;;;;;67.20;11.43;;;12.30;99.90;;;12.55;100.00;100270.34;4900984;29;20044;-68
2023/12/24 07:55:24;;;;;;;60.50;12.13;;;12.30;99.90;;;12.53;100.00;100291.59;4900868;29;20053;-67
2023/12/24 07:57:53;;;;;;;62.33;11.35;;;12.30;99.90;;;12.48;100.00;100269.63;4901042;29;20048;-68
2023/12/24 08:00:21;;;;;;;67.80;11.60;;;12.30;99.90;;;12.56;100.00;100266.78;4901115;29;20051;-69
2023/12/24 08:02:51;;;;;;;63.50;11.45;;;12.30;99.90;;;12.53;100.00;100286.28;4900884;29;20131;-68
2023/12/24 08:05:21;;;;;;;56.65;10.18;;;12.30;99.90;;;12.42;100.00;100255.59;4900727;29;20522;-68
2023/12/24 08:07:49;;;;;;;65.40;11.45;;;12.30;99.90;;;12.55;100.00;100288.91;4899386;29;20084;-68
2023/12/24 08:10:18;;;;;;;69.75;12.93;;;12.30;99.90;;;12.58;100.00;100287.03;4900958;29;20055;-68
2023/12/24 08:12:46;;;;;;;64.57;10.60;;;12.30;99.90;;;12.47;100.00;100238.66;4900702;29;20105;-68
2023/12/24 08:15:17;;;;;;;57.15;10.93;;;12.40;99.90;;;12.60;100.00;100287.03;4930755;29;20068;-68
2023/12/24 08:17:45;;;;;;;53.08;10.95;;;12.40;99.90;;;12.61;100.00;100283.47;4900629;29;20084;-68
2023/12/24 08:20:14;;;;;;;45.58;10.15;;;12.40;99.90;;;12.68;100.00;100277.09;4900422;29;20051;-68
2023/12/24 08:22:44;;;;;;;61.35;10.48;;;12.40;99.90;;;12.65;100.00;100278.06;4900522;29;20076;-68
2023/12/24 08:25:12;;;;;;;56.55;11.32;;;12.40;99.90;;;12.66;100.00;100276.25;4900744;29;20063;-68
2023/12/24 08:27:41;;;;;;;44.35;9.30;;;12.40;99.90;;;12.73;100.00;100282.31;4900246;29;20483;-68
2023/12/24 08:30:11;;;;;;;49.45;10.02;;;12.50;99.90;;;12.78;100.00;100294.56;4900404;29;20092;-68
2023/12/24 08:32:40;;;;;;;49.45;10.35;;;12.50;99.90;;;12.71;100.00;100295.63;4900046;29;20051;-68
2023/12/24 08:35:11;;;;;;;56.05;10.02;;;12.50;99.90;;;12.73;100.00;100298.25;4900064;29;20104;-68
2023/12/24 08:37:39;;;;;;;58.05;11.30;;;12.50;99.90;;;12.78;100.00;100285.72;4898965;29;20056;-68
2023/12/24 08:40:10;;;;;;;50.15;10.60;;;12.50;99.90;;;12.76;100.00;100282.22;4899934;29;20048;-68
2023/12/24 08:42:39;;;;;;;47.15;10.07;;;12.50;99.90;;;12.75;100.00;100286.69;4899864;29;20052;-68
2023/12/24 08:45:09;;;;;;;60.05;11.18;;;12.50;99.90;;;12.73;100.00;100280.53;4899725;29;20116;-68
2023/12/24 08:47:37;;;;;;;49.65;9.45;;;12.50;99.90;;;12.73;100.00;100285.84;4899953;29;20048;-68
2023/12/24 08:50:07;;;;;;;51.92;10.48;;;12.50;99.90;;;12.75;100.00;100253.97;4899861;29;20072;-69
2023/12/24 08:52:36;;;;;;;50.03;10.82;;;12.50;99.90;;;12.75;100.00;100264.59;4899763;29;20056;-69
2023/12/24 08:55:06;;;;;;;52.10;10.50;;;12.50;99.90;;;12.84;100.00;100267.00;4899763;29;20116;-68
2023/12/24 08:57:35;;;;;;;63.28;11.77;;;12.50;99.90;;;12.91;100.00;100245.59;4899568;29;20063;-69
2023/12/24 09:00:06;;;;;;;57.67;11.55;;;12.60;99.90;;;12.85;100.00;100235.16;4899670;29;20048;-69
2023/12/24 09:02:34;;;;;;;60.85;11.70;;;12.60;99.90;;;12.86;100.00;100259.88;4898652;29;20049;-68
2023/12/24 09:05:03;;;;;;;64.93;12.27;;;12.60;99.90;;;12.92;100.00;100251.78;4899392;29;20586;-69
2023/12/24 09:07:31;;;;;;;61.58;12.77;;;12.60;99.90;;;12.91;100.00;100261.53;4898102;29;20360;-69
2023/12/24 09:10:00;;;;;;;66.07;11.63;;;12.60;99.90;;;12.98;100.00;100246.34;4899383;29;20045;-69
2023/12/24 09:12:28;;;;;;;62.03;11.60;;;12.70;99.90;;;12.90;100.00;100246.53;4899454;29;20051;-69
2023/12/24 09:14:58;;;;;;;61.78;12.02;;;12.70;99.90;;;12.93;100.00;100254.41;4929828;29;20422;-69
2023/12/24 09:17:27;;;;;;;68.35;12.25;;;12.70;99.90;;;12.97;100.00;100248.09;4899457;29;20061;-69
2023/12/24 09:19:56;;;;;;;71.32;11.90;;;12.70;99.90;;;12.96;100.00;100254.34;4898073;29;20052;-69
2023/12/24 09:22:24;;;;;;;57.40;11.30;;;12.70;99.90;;;12.90;100.00;100249.16;4899116;29;20048;-68
2023/12/24 09:24:52;;;;;;;59.95;11.93;;;12.70;99.90;;;12.96;100.00;100248.16;4899097;29;20048;-69
2023/12/24 09:27:21;;;;;;;66.90;12.75;;;12.70;99.90;;;12.99;100.00;100251.59;4899640;29;20044;-69
2023/12/24 09:29:49;;;;;;;66.50;13.32;;;12.70;99.90;;;12.97;100.00;100255.22;4899248;29;20219;-69
2023/12/24 09:32:19;;;;;;;57.63;11.65;;;12.70;99.90;;;12.96;100.00;100258.78;4913568;29;20056;-69
2023/12/24 09:34:47;;;;;;;59.87;12.77;;;12.70;99.90;;;12.91;100.00;100240.28;4899089;29;20513;-69
2023/12/24 09:37:15;;;;;;;68.93;12.45;;;12.70;99.90;;;12.93;100.00;100240.28;4899283;29;20072;-69
2023/12/24 09:39:44;;;;;;;63.60;12.73;;;12.70;99.90;;;12.95;100.00;100241.97;4899070;29;20048;-69
2023/12/24 09:42:12;;;;;;;67.40;12.95;;;12.70;99.90;;;12.93;100.00;100254.41;4898848;29;20053;-69
2023/12/24 09:44:41;;;;;;;63.63;11.57;;;12.70;99.90;;;12.92;100.00;100273.91;4898846;29;20097;-69
2023/12/24 09:47:10;;;;;;;71.32;12.57;;;12.70;99.90;;;13.01;100.00;100256.88;4898717;29;20048;-70
2023/12/24 09:49:39;;;;;;;62.72;12.57;;;12.70;99.90;;;13.01;100.00;100267.47;4898676;29;20037;-71
2023/12/24 09:52:09;;;;;;;70.47;13.32;;;12.80;99.90;;;12.92;100.00;100260.63;4898701;29;20060;-69
2023/12/24 09:54:39;;;;;;;67.43;12.95;;;12.70;99.90;;;12.98;100.00;100262.25;4898743;29;20459;-69
2023/12/24 09:57:07;;;;;;;64.30;12.18;;;12.70;99.90;;;12.96;100.00;100256.13;4912910;29;20435;-70
2023/12/24 09:59:35;;;;;;;72.43;11.90;;;12.70;99.90;;;12.87;100.00;100270.50;4898774;29;20122;-69
2023/12/24 10:02:04;;;;;;;64.35;12.50;;;12.70;99.90;;;12.90;100.00;100289.00;4898343;29;20037;-69
2023/12/24 10:04:33;;;;;;;57.08;12.95;;;12.60;99.90;;;12.75;100.00;100267.22;4898670;29;20048;-69